sensor_id;sensor_type;location;lat;lon;timestamp;pressure;altitude;pressure_sealevel;temperature;humidity
76730;BME280;65653;53.106;18.046;2022-12-07T00:01:43;100253.24;;;1.74;94.28
76730;BME280;65653;53.106;18.046;2022-12-07T00:04:12;100250.63;;;1.75;94.29
76730;BME280;65653;53.106;18.046;2022-12-07T00:06:41;100251.92;;;1.76;94.29
76730;BME280;65653;53.106;18.046;2022-12-07T00:09:12;100249.41;;;1.78;94.34
76730;BME280;65653;53.106;18.046;2022-12-07T00:11:39;100245.60;;;1.79;94.45
76730;BME280;65653;53.106;18.046;2022-12-07T00:14:09;100247.27;;;1.79;94.37
76730;BME280;65653;53.106;18.046;2022-12-07T00:16:36;100245.11;;;1.75;94.20
76730;BME280;65653;53.106;18.046;2022-12-07T00:19:03;100243.73;;;1.73;94.22
76730;BME280;65653;53.106;18.046;2022-12-07T00:21:32;100242.56;;;1.74;94.36
76730;BME280;65653;53.106;18.046;2022-12-07T00:23:59;100239.73;;;1.75;94.38
76730;BME280;65653;53.106;18.046;2022-12-07T00:26:38;100241.38;;;1.73;94.32
76730;BME280;65653;53.106;18.046;2022-12-07T00:29:17;100241.14;;;1.75;94.34
76730;BME280;65653;53.106;18.046;2022-12-07T00:31:44;100236.64;;;1.76;94.35
76730;BME280;65653;53.106;18.046;2022-12-07T00:34:16;100236.49;;;1.76;94.36
76730;BME280;65653;53.106;18.046;2022-12-07T00:36:43;100234.59;;;1.75;94.30
76730;BME280;65653;53.106;18.046;2022-12-07T00:39:10;100239.50;;;1.73;94.21
76730;BME280;65653;53.106;18.046;2022-12-07T00:41:37;100239.40;;;1.74;94.23
76730;BME280;65653;53.106;18.046;2022-12-07T00:44:03;100235.16;;;1.73;94.11
76730;BME280;65653;53.106;18.046;2022-12-07T00:46:30;100235.14;;;1.71;94.13
76730;BME280;65653;53.106;18.046;2022-12-07T00:48:56;100233.03;;;1.71;94.11
76730;BME280;65653;53.106;18.046;2022-12-07T00:51:24;100235.89;;;1.70;94.04
76730;BME280;65653;53.106;18.046;2022-12-07T00:53:51;100230.59;;;1.70;94.06
76730;BME280;65653;53.106;18.046;2022-12-07T00:56:21;100233.69;;;1.70;94.12
76730;BME280;65653;53.106;18.046;2022-12-07T00:59:14;100231.99;;;1.70;94.16
76730;BME280;65653;53.106;18.046;2022-12-07T01:01:41;100227.42;;;1.70;94.07
76730;BME280;65653;53.106;18.046;2022-12-07T01:04:08;100223.61;;;1.70;94.15
76730;BME280;65653;53.106;18.046;2022-12-07T01:06:34;100223.74;;;1.71;94.08
76730;BME280;65653;53.106;18.046;2022-12-07T01:09:02;100219.27;;;1.72;94.29
76730;BME280;65653;53.106;18.046;2022-12-07T01:11:30;100220.77;;;1.73;94.25
76730;BME280;65653;53.106;18.046;2022-12-07T01:13:58;100216.84;;;1.73;94.21
76730;BME280;65653;53.106;18.046;2022-12-07T01:16:27;100213.64;;;1.72;94.18
76730;BME280;65653;53.106;18.046;2022-12-07T01:18:55;100211.96;;;1.70;94.13
76730;BME280;65653;53.106;18.046;2022-12-07T01:21:31;100214.25;;;1.69;94.12
76730;BME280;65653;53.106;18.046;2022-12-07T01:24:03;100209.20;;;1.71;94.19
76730;BME280;65653;53.106;18.046;2022-12-07T01:26:30;100210.36;;;1.70;94.19
76730;BME280;65653;53.106;18.046;2022-12-07T01:28:57;100202.21;;;1.68;94.11
76730;BME280;65653;53.106;18.046;2022-12-07T01:31:26;100201.69;;;1.68;94.26
76730;BME280;65653;53.106;18.046;2022-12-07T01:33:56;100200.69;;;1.67;94.18
76730;BME280;65653;53.106;18.046;2022-12-07T01:38:54;100197.06;;;1.65;94.22
76730;BME280;65653;53.106;18.046;2022-12-07T01:41:24;100195.36;;;1.66;94.30
76730;BME280;65653;53.106;18.046;2022-12-07T01:46:37;100188.34;;;1.63;94.45
76730;BME280;65653;53.106;18.046;2022-12-07T01:49:07;100185.29;;;1.65;94.41
76730;BME280;65653;53.106;18.046;2022-12-07T01:51:37;100183.41;;;1.67;94.51
76730;BME280;65653;53.106;18.046;2022-12-07T01:54:05;100176.03;;;1.68;94.47
76730;BME280;65653;53.106;18.046;2022-12-07T01:56:32;100173.33;;;1.67;94.43
76730;BME280;65653;53.106;18.046;2022-12-07T01:58:59;100167.08;;;1.68;94.49
76730;BME280;65653;53.106;18.046;2022-12-07T02:01:27;100168.10;;;1.67;94.47
76730;BME280;65653;53.106;18.046;2022-12-07T02:03:54;100168.56;;;1.66;94.56
76730;BME280;65653;53.106;18.046;2022-12-07T02:06:22;100163.73;;;1.65;94.49
76730;BME280;65653;53.106;18.046;2022-12-07T02:08:51;100157.56;;;1.67;94.53
76730;BME280;65653;53.106;18.046;2022-12-07T02:11:18;100159.45;;;1.70;94.56
76730;BME280;65653;53.106;18.046;2022-12-07T02:13:45;100155.55;;;1.71;94.57
76730;BME280;65653;53.106;18.046;2022-12-07T02:16:38;100156.49;;;1.72;94.56
76730;BME280;65653;53.106;18.046;2022-12-07T02:30:50;100153.71;;;1.81;94.59
76730;BME280;65653;53.106;18.046;2022-12-07T02:33:25;100158.40;;;1.83;94.66
76730;BME280;65653;53.106;18.046;2022-12-07T02:35:59;100161.08;;;1.85;94.69
76730;BME280;65653;53.106;18.046;2022-12-07T02:38:39;100160.49;;;1.85;94.67
76730;BME280;65653;53.106;18.046;2022-12-07T02:41:13;100158.83;;;1.86;94.79
76730;BME280;65653;53.106;18.046;2022-12-07T02:43:56;100154.02;;;1.88;94.77
76730;BME280;65653;53.106;18.046;2022-12-07T02:46:28;100150.08;;;1.90;94.82
76730;BME280;65653;53.106;18.046;2022-12-07T02:48:57;100152.04;;;1.93;94.90
76730;BME280;65653;53.106;18.046;2022-12-07T02:51:25;100144.91;;;1.95;94.97
76730;BME280;65653;53.106;18.046;2022-12-07T02:53:52;100141.64;;;1.96;94.99
76730;BME280;65653;53.106;18.046;2022-12-07T03:04:45;100140.98;;;2.06;94.89
76730;BME280;65653;53.106;18.046;2022-12-07T03:10:24;100139.30;;;2.09;94.75
76730;BME280;65653;53.106;18.046;2022-12-07T03:13:11;100142.52;;;2.11;94.75
76730;BME280;65653;53.106;18.046;2022-12-07T03:16:04;100139.05;;;2.13;94.71
76730;BME280;65653;53.106;18.046;2022-12-07T03:18:36;100133.88;;;2.14;94.57
76730;BME280;65653;53.106;18.046;2022-12-07T03:21:08;100135.08;;;2.13;94.43
76730;BME280;65653;53.106;18.046;2022-12-07T03:23:38;100140.86;;;2.13;94.32
76730;BME280;65653;53.106;18.046;2022-12-07T03:26:08;100141.91;;;2.16;94.30
76730;BME280;65653;53.106;18.046;2022-12-07T03:28:42;100137.82;;;2.16;94.13
76730;BME280;65653;53.106;18.046;2022-12-07T03:31:17;100136.84;;;2.17;93.99
76730;BME280;65653;53.106;18.046;2022-12-07T03:33:51;100139.40;;;2.19;93.92
76730;BME280;65653;53.106;18.046;2022-12-07T03:36:31;100132.63;;;2.15;93.72
76730;BME280;65653;53.106;18.046;2022-12-07T03:39:30;100134.95;;;2.14;93.58
76730;BME280;65653;53.106;18.046;2022-12-07T03:42:00;100132.32;;;2.13;93.60
76730;BME280;65653;53.106;18.046;2022-12-07T03:44:30;100130.27;;;2.12;93.49
76730;BME280;65653;53.106;18.046;2022-12-07T03:50:07;100127.36;;;2.10;93.49
76730;BME280;65653;53.106;18.046;2022-12-07T03:52:48;100123.67;;;2.12;93.58
76730;BME280;65653;53.106;18.046;2022-12-07T03:57:44;100117.83;;;2.11;93.36
76730;BME280;65653;53.106;18.046;2022-12-07T04:00:14;100115.64;;;2.09;93.24
76730;BME280;65653;53.106;18.046;2022-12-07T04:02:41;100116.65;;;2.08;93.26
76730;BME280;65653;53.106;18.046;2022-12-07T04:05:09;100114.27;;;2.05;93.09
76730;BME280;65653;53.106;18.046;2022-12-07T04:07:36;100116.19;;;2.03;92.85
76730;BME280;65653;53.106;18.046;2022-12-07T04:10:04;100111.86;;;2.00;92.77
76730;BME280;65653;53.106;18.046;2022-12-07T04:12:31;100114.52;;;1.98;92.62
76730;BME280;65653;53.106;18.046;2022-12-07T04:14:57;100112.82;;;1.97;92.58
76730;BME280;65653;53.106;18.046;2022-12-07T04:17:24;100111.20;;;1.95;92.50
76730;BME280;65653;53.106;18.046;2022-12-07T04:19:50;100105.98;;;1.93;92.52
76730;BME280;65653;53.106;18.046;2022-12-07T04:22:17;100103.94;;;1.91;92.40
76730;BME280;65653;53.106;18.046;2022-12-07T04:24:43;100102.94;;;1.91;92.42
76730;BME280;65653;53.106;18.046;2022-12-07T04:27:10;100101.77;;;1.89;92.48
76730;BME280;65653;53.106;18.046;2022-12-07T04:29:36;100101.06;;;1.88;92.18
76730;BME280;65653;53.106;18.046;2022-12-07T04:32:03;100102.35;;;1.86;92.18
76730;BME280;65653;53.106;18.046;2022-12-07T04:34:29;100100.05;;;1.85;92.20
76730;BME280;65653;53.106;18.046;2022-12-07T04:36:56;100101.31;;;1.84;92.02
76730;BME280;65653;53.106;18.046;2022-12-07T04:39:30;100096.77;;;1.82;92.03
76730;BME280;65653;53.106;18.046;2022-12-07T04:41:57;100091.02;;;1.81;91.96
76730;BME280;65653;53.106;18.046;2022-12-07T04:44:25;100091.73;;;1.78;92.12
76730;BME280;65653;53.106;18.046;2022-12-07T04:46:53;100094.53;;;1.71;91.80
76730;BME280;65653;53.106;18.046;2022-12-07T04:49:20;100090.61;;;1.65;91.77
76730;BME280;65653;53.106;18.046;2022-12-07T04:51:47;100089.50;;;1.60;91.80
76730;BME280;65653;53.106;18.046;2022-12-07T04:54:15;100095.25;;;1.56;92.04
76730;BME280;65653;53.106;18.046;2022-12-07T04:56:42;100094.58;;;1.52;92.01
76730;BME280;65653;53.106;18.046;2022-12-07T04:59:10;100090.66;;;1.48;92.00
76730;BME280;65653;53.106;18.046;2022-12-07T05:01:37;100089.80;;;1.44;91.95
76730;BME280;65653;53.106;18.046;2022-12-07T05:04:04;100081.94;;;1.37;91.94
76730;BME280;65653;53.106;18.046;2022-12-07T05:06:30;100084.30;;;1.32;91.97
76730;BME280;65653;53.106;18.046;2022-12-07T05:08:57;100085.67;;;1.28;91.93
76730;BME280;65653;53.106;18.046;2022-12-07T05:11:24;100079.95;;;1.24;91.73
76730;BME280;65653;53.106;18.046;2022-12-07T05:14:09;100081.49;;;1.19;91.31
76730;BME280;65653;53.106;18.046;2022-12-07T05:16:37;100081.37;;;1.16;91.06
76730;BME280;65653;53.106;18.046;2022-12-07T05:19:04;100082.70;;;1.12;90.74
76730;BME280;65653;53.106;18.046;2022-12-07T05:21:31;100083.56;;;1.07;90.52
76730;BME280;65653;53.106;18.046;2022-12-07T05:23:58;100082.98;;;1.02;90.21
76730;BME280;65653;53.106;18.046;2022-12-07T05:26:25;100083.16;;;0.99;90.34
76730;BME280;65653;53.106;18.046;2022-12-07T05:28:54;100082.72;;;0.94;90.13
76730;BME280;65653;53.106;18.046;2022-12-07T05:31:21;100088.10;;;0.90;90.09
76730;BME280;65653;53.106;18.046;2022-12-07T05:33:48;100092.98;;;0.86;90.19
76730;BME280;65653;53.106;18.046;2022-12-07T05:36:14;100100.49;;;0.81;90.16
76730;BME280;65653;53.106;18.046;2022-12-07T05:38:41;100097.20;;;0.78;90.34
76730;BME280;65653;53.106;18.046;2022-12-07T05:41:09;100093.05;;;0.74;90.41
76730;BME280;65653;53.106;18.046;2022-12-07T05:43:58;100092.30;;;0.72;90.78
76730;BME280;65653;53.106;18.046;2022-12-07T05:46:24;100094.54;;;0.72;91.01
76730;BME280;65653;53.106;18.046;2022-12-07T05:48:51;100094.59;;;0.69;91.02
76730;BME280;65653;53.106;18.046;2022-12-07T05:51:18;100094.46;;;0.67;91.16
76730;BME280;65653;53.106;18.046;2022-12-07T05:53:45;100098.82;;;0.66;91.26
76730;BME280;65653;53.106;18.046;2022-12-07T05:56:12;100099.58;;;0.63;91.37
76730;BME280;65653;53.106;18.046;2022-12-07T05:58:38;100095.58;;;0.62;91.52
76730;BME280;65653;53.106;18.046;2022-12-07T06:01:23;100100.64;;;0.58;91.43
76730;BME280;65653;53.106;18.046;2022-12-07T06:03:50;100103.23;;;0.56;91.37
76730;BME280;65653;53.106;18.046;2022-12-07T06:06:16;100102.29;;;0.55;91.36
76730;BME280;65653;53.106;18.046;2022-12-07T06:08:42;100103.31;;;0.52;91.36
76730;BME280;65653;53.106;18.046;2022-12-07T06:11:09;100104.15;;;0.51;91.41
76730;BME280;65653;53.106;18.046;2022-12-07T06:13:54;100103.42;;;0.49;91.44
76730;BME280;65653;53.106;18.046;2022-12-07T06:16:21;100107.60;;;0.47;91.58
76730;BME280;65653;53.106;18.046;2022-12-07T06:18:47;100107.96;;;0.44;91.37
76730;BME280;65653;53.106;18.046;2022-12-07T06:21:13;100107.26;;;0.41;91.44
76730;BME280;65653;53.106;18.046;2022-12-07T06:23:40;100103.89;;;0.41;91.48
76730;BME280;65653;53.106;18.046;2022-12-07T06:26:07;100104.39;;;0.40;91.46
76730;BME280;65653;53.106;18.046;2022-12-07T06:28:34;100105.52;;;0.37;91.47
76730;BME280;65653;53.106;18.046;2022-12-07T06:31:02;100106.13;;;0.35;91.54
76730;BME280;65653;53.106;18.046;2022-12-07T06:33:29;100106.14;;;0.31;91.58
76730;BME280;65653;53.106;18.046;2022-12-07T06:35:56;100111.21;;;0.28;91.66
76730;BME280;65653;53.106;18.046;2022-12-07T06:38:22;100108.61;;;0.23;91.66
76730;BME280;65653;53.106;18.046;2022-12-07T06:40:48;100107.89;;;0.22;91.78
76730;BME280;65653;53.106;18.046;2022-12-07T06:43:15;100107.66;;;0.20;91.92
76730;BME280;65653;53.106;18.046;2022-12-07T06:45:42;100113.51;;;0.20;91.72
76730;BME280;65653;53.106;18.046;2022-12-07T06:48:08;100111.64;;;0.20;91.72
76730;BME280;65653;53.106;18.046;2022-12-07T06:50:35;100111.55;;;0.21;91.75
76730;BME280;65653;53.106;18.046;2022-12-07T06:53:02;100109.48;;;0.24;91.87
76730;BME280;65653;53.106;18.046;2022-12-07T06:55:28;100111.54;;;0.23;91.82
76730;BME280;65653;53.106;18.046;2022-12-07T06:57:55;100105.60;;;0.24;91.84
76730;BME280;65653;53.106;18.046;2022-12-07T07:00:22;100102.67;;;0.25;91.76
76730;BME280;65653;53.106;18.046;2022-12-07T07:02:48;100106.15;;;0.26;91.71
76730;BME280;65653;53.106;18.046;2022-12-07T07:05:14;100103.31;;;0.27;91.61
76730;BME280;65653;53.106;18.046;2022-12-07T07:07:43;100099.14;;;0.29;91.67
76730;BME280;65653;53.106;18.046;2022-12-07T07:10:09;100101.55;;;0.28;91.38
76730;BME280;65653;53.106;18.046;2022-12-07T07:12:36;100096.67;;;0.28;91.22
76730;BME280;65653;53.106;18.046;2022-12-07T07:15:02;100099.64;;;0.28;91.11
76730;BME280;65653;53.106;18.046;2022-12-07T07:17:29;100101.40;;;0.26;90.84
76730;BME280;65653;53.106;18.046;2022-12-07T07:19:55;100098.66;;;0.25;90.60
76730;BME280;65653;53.106;18.046;2022-12-07T07:22:22;100094.44;;;0.25;90.62
76730;BME280;65653;53.106;18.046;2022-12-07T07:24:49;100092.41;;;0.27;90.79
76730;BME280;65653;53.106;18.046;2022-12-07T07:27:15;100091.41;;;0.28;90.51
76730;BME280;65653;53.106;18.046;2022-12-07T07:29:41;100088.56;;;0.30;90.33
76730;BME280;65653;53.106;18.046;2022-12-07T07:32:08;100087.48;;;0.33;90.33
76730;BME280;65653;53.106;18.046;2022-12-07T07:34:34;100090.74;;;0.37;90.49
76730;BME280;65653;53.106;18.046;2022-12-07T07:37:01;100091.88;;;0.41;90.56
76730;BME280;65653;53.106;18.046;2022-12-07T07:39:28;100092.88;;;0.46;90.45
76730;BME280;65653;53.106;18.046;2022-12-07T07:41:54;100093.67;;;0.52;90.43
76730;BME280;65653;53.106;18.046;2022-12-07T07:44:20;100089.16;;;0.57;90.18
76730;BME280;65653;53.106;18.046;2022-12-07T07:46:47;100084.67;;;0.58;89.93
76730;BME280;65653;53.106;18.046;2022-12-07T07:49:13;100086.95;;;0.61;89.79
76730;BME280;65653;53.106;18.046;2022-12-07T07:51:40;100087.83;;;0.63;89.74
76730;BME280;65653;53.106;18.046;2022-12-07T07:54:06;100084.07;;;0.62;89.57
76730;BME280;65653;53.106;18.046;2022-12-07T07:56:33;100084.58;;;0.62;89.52
76730;BME280;65653;53.106;18.046;2022-12-07T07:58:59;100083.59;;;0.63;89.52
76730;BME280;65653;53.106;18.046;2022-12-07T08:01:26;100080.81;;;0.67;89.73
76730;BME280;65653;53.106;18.046;2022-12-07T08:03:52;100084.95;;;0.75;89.64
76730;BME280;65653;53.106;18.046;2022-12-07T08:06:19;100083.08;;;0.88;89.44
76730;BME280;65653;53.106;18.046;2022-12-07T08:08:45;100083.27;;;0.96;89.19
76730;BME280;65653;53.106;18.046;2022-12-07T08:11:12;100090.59;;;0.89;89.24
76730;BME280;65653;53.106;18.046;2022-12-07T08:13:38;100087.14;;;0.84;89.34
76730;BME280;65653;53.106;18.046;2022-12-07T08:16:07;100083.36;;;0.85;89.50
76730;BME280;65653;53.106;18.046;2022-12-07T08:18:36;100082.15;;;0.86;89.38
76730;BME280;65653;53.106;18.046;2022-12-07T08:21:03;100077.73;;;0.92;89.38
76730;BME280;65653;53.106;18.046;2022-12-07T08:23:30;100077.13;;;1.04;89.40
76730;BME280;65653;53.106;18.046;2022-12-07T08:26:04;100072.67;;;1.15;89.13
76730;BME280;65653;53.106;18.046;2022-12-07T08:28:31;100071.09;;;1.23;88.50
76730;BME280;65653;53.106;18.046;2022-12-07T08:31:03;100071.90;;;1.29;88.55
76730;BME280;65653;53.106;18.046;2022-12-07T08:33:30;100069.98;;;1.39;88.17
76730;BME280;65653;53.106;18.046;2022-12-07T08:36:02;100063.02;;;1.53;87.44
76730;BME280;65653;53.106;18.046;2022-12-07T08:38:29;100061.39;;;1.51;87.51
76730;BME280;65653;53.106;18.046;2022-12-07T08:40:56;100058.70;;;1.34;87.81
76730;BME280;65653;53.106;18.046;2022-12-07T08:43:23;100060.32;;;1.25;88.23
76730;BME280;65653;53.106;18.046;2022-12-07T08:48:34;100058.77;;;1.13;88.87
76730;BME280;65653;53.106;18.046;2022-12-07T08:51:02;100056.53;;;1.12;89.25
76730;BME280;65653;53.106;18.046;2022-12-07T08:53:29;100059.09;;;1.11;89.39
76730;BME280;65653;53.106;18.046;2022-12-07T08:55:57;100061.02;;;1.14;89.49
76730;BME280;65653;53.106;18.046;2022-12-07T08:58:24;100055.98;;;1.18;89.56
76730;BME280;65653;53.106;18.046;2022-12-07T09:00:50;100054.63;;;1.21;89.31
76730;BME280;65653;53.106;18.046;2022-12-07T09:03:18;100049.77;;;1.27;89.36
76730;BME280;65653;53.106;18.046;2022-12-07T09:05:45;100042.13;;;1.32;89.25
76730;BME280;65653;53.106;18.046;2022-12-07T09:08:12;100041.06;;;1.39;89.16
76730;BME280;65653;53.106;18.046;2022-12-07T09:10:38;100039.87;;;1.47;88.75
76730;BME280;65653;53.106;18.046;2022-12-07T09:13:05;100036.11;;;1.53;88.50
76730;BME280;65653;53.106;18.046;2022-12-07T09:15:31;100035.52;;;1.60;88.28
76730;BME280;65653;53.106;18.046;2022-12-07T09:17:58;100033.77;;;1.72;88.06
76730;BME280;65653;53.106;18.046;2022-12-07T09:20:24;100026.34;;;1.84;87.86
76730;BME280;65653;53.106;18.046;2022-12-07T09:22:51;100023.42;;;1.89;87.56
76730;BME280;65653;53.106;18.046;2022-12-07T09:25:17;100018.98;;;1.91;87.60
76730;BME280;65653;53.106;18.046;2022-12-07T09:27:44;100016.13;;;1.94;87.43
76730;BME280;65653;53.106;18.046;2022-12-07T09:30:11;100014.42;;;1.96;87.45
76730;BME280;65653;53.106;18.046;2022-12-07T09:32:38;100009.73;;;2.04;87.32
76730;BME280;65653;53.106;18.046;2022-12-07T09:35:04;100008.16;;;2.08;86.92
76730;BME280;65653;53.106;18.046;2022-12-07T09:37:31;100008.09;;;2.10;86.85
76730;BME280;65653;53.106;18.046;2022-12-07T09:40:02;100003.14;;;2.12;86.89
76730;BME280;65653;53.106;18.046;2022-12-07T09:42:34;99999.78;;;2.21;87.03
76730;BME280;65653;53.106;18.046;2022-12-07T09:45:04;99998.31;;;2.25;86.49
76730;BME280;65653;53.106;18.046;2022-12-07T09:47:32;99993.70;;;2.24;86.79
76730;BME280;65653;53.106;18.046;2022-12-07T09:50:10;99989.19;;;2.22;86.91
76730;BME280;65653;53.106;18.046;2022-12-07T09:52:38;99988.13;;;2.13;86.76
76730;BME280;65653;53.106;18.046;2022-12-07T09:55:15;99984.39;;;2.14;87.01
76730;BME280;65653;53.106;18.046;2022-12-07T09:57:43;99982.23;;;2.20;86.96
76730;BME280;65653;53.106;18.046;2022-12-07T10:00:18;99981.30;;;2.15;86.78
76730;BME280;65653;53.106;18.046;2022-12-07T10:02:59;99979.14;;;2.06;87.08
76730;BME280;65653;53.106;18.046;2022-12-07T10:05:31;99982.77;;;1.97;87.44
76730;BME280;65653;53.106;18.046;2022-12-07T10:07:58;99978.47;;;1.92;87.77
76730;BME280;65653;53.106;18.046;2022-12-07T10:10:29;99971.98;;;1.93;88.02
76730;BME280;65653;53.106;18.046;2022-12-07T10:12:59;99974.98;;;1.90;87.78
76730;BME280;65653;53.106;18.046;2022-12-07T10:15:52;99971.20;;;1.87;87.91
76730;BME280;65653;53.106;18.046;2022-12-07T10:18:40;99965.90;;;1.87;88.36
76730;BME280;65653;53.106;18.046;2022-12-07T10:21:19;99964.36;;;1.84;88.27
76730;BME280;65653;53.106;18.046;2022-12-07T10:26:35;99955.35;;;1.84;88.63
76730;BME280;65653;53.106;18.046;2022-12-07T10:29:19;99952.52;;;1.83;88.21
76730;BME280;65653;53.106;18.046;2022-12-07T10:32:02;99950.23;;;1.91;87.90
76730;BME280;65653;53.106;18.046;2022-12-07T10:34:38;99943.02;;;1.97;87.94
76730;BME280;65653;53.106;18.046;2022-12-07T10:37:18;99942.54;;;1.97;87.57
76730;BME280;65653;53.106;18.046;2022-12-07T10:39:50;99939.11;;;1.91;87.22
76730;BME280;65653;53.106;18.046;2022-12-07T10:42:25;99939.85;;;1.87;87.61
76730;BME280;65653;53.106;18.046;2022-12-07T10:45:24;99937.81;;;1.84;87.96
76730;BME280;65653;53.106;18.046;2022-12-07T10:48:12;99934.42;;;1.80;87.90
76730;BME280;65653;53.106;18.046;2022-12-07T10:51:01;99930.02;;;1.82;87.94
76730;BME280;65653;53.106;18.046;2022-12-07T10:53:50;99929.98;;;1.89;88.13
76730;BME280;65653;53.106;18.046;2022-12-07T10:56:47;99923.32;;;1.88;88.11
76730;BME280;65653;53.106;18.046;2022-12-07T11:02:14;99920.72;;;1.84;88.38
76730;BME280;65653;53.106;18.046;2022-12-07T11:05:16;99913.89;;;1.80;88.64
76730;BME280;65653;53.106;18.046;2022-12-07T11:07:54;99908.11;;;1.78;88.70
76730;BME280;65653;53.106;18.046;2022-12-07T11:24:47;99890.23;;;1.88;89.38
76730;BME280;65653;53.106;18.046;2022-12-07T11:27:40;99884.17;;;1.90;89.18
76730;BME280;65653;53.106;18.046;2022-12-07T11:30:19;99885.02;;;1.91;89.06
76730;BME280;65653;53.106;18.046;2022-12-07T11:32:54;99883.63;;;1.90;89.14
76730;BME280;65653;53.106;18.046;2022-12-07T11:38:15;99872.73;;;1.79;88.75
76730;BME280;65653;53.106;18.046;2022-12-07T11:40:46;99868.69;;;1.71;89.20
76730;BME280;65653;53.106;18.046;2022-12-07T11:43:31;99865.79;;;1.64;89.38
76730;BME280;65653;53.106;18.046;2022-12-07T11:46:05;99863.33;;;1.59;89.69
76730;BME280;65653;53.106;18.046;2022-12-07T11:48:38;99862.67;;;1.55;89.72
76730;BME280;65653;53.106;18.046;2022-12-07T11:51:11;99861.27;;;1.51;89.53
76730;BME280;65653;53.106;18.046;2022-12-07T11:53:46;99862.59;;;1.49;89.61
76730;BME280;65653;53.106;18.046;2022-12-07T11:56:15;99864.80;;;1.51;89.52
76730;BME280;65653;53.106;18.046;2022-12-07T12:04:02;99856.42;;;1.51;89.47
76730;BME280;65653;53.106;18.046;2022-12-07T12:06:31;99855.16;;;1.47;89.51
76730;BME280;65653;53.106;18.046;2022-12-07T12:09:05;99852.73;;;1.43;89.75
76730;BME280;65653;53.106;18.046;2022-12-07T12:17:19;99853.16;;;1.40;89.80
76730;BME280;65653;53.106;18.046;2022-12-07T12:22:45;99841.47;;;1.39;89.99
76730;BME280;65653;53.106;18.046;2022-12-07T12:25:25;99839.88;;;1.39;89.92
76730;BME280;65653;53.106;18.046;2022-12-07T12:27:56;99835.30;;;1.38;89.79
76730;BME280;65653;53.106;18.046;2022-12-07T12:30:37;99835.13;;;1.37;89.83
76730;BME280;65653;53.106;18.046;2022-12-07T12:33:12;99834.15;;;1.40;89.97
76730;BME280;65653;53.106;18.046;2022-12-07T12:35:40;99828.31;;;1.40;89.99
76730;BME280;65653;53.106;18.046;2022-12-07T12:38:31;99832.16;;;1.41;90.15
76730;BME280;65653;53.106;18.046;2022-12-07T12:41:01;99828.11;;;1.45;90.40
76730;BME280;65653;53.106;18.046;2022-12-07T12:43:45;99822.42;;;1.47;90.62
76730;BME280;65653;53.106;18.046;2022-12-07T12:51:53;99822.48;;;1.45;90.56
76730;BME280;65653;53.106;18.046;2022-12-07T12:54:23;99820.52;;;1.48;90.78
76730;BME280;65653;53.106;18.046;2022-12-07T12:59:36;99815.21;;;1.37;90.47
76730;BME280;65653;53.106;18.046;2022-12-07T13:02:29;99812.15;;;1.35;90.57
76730;BME280;65653;53.106;18.046;2022-12-07T13:15:53;99808.89;;;1.23;91.21
76730;BME280;65653;53.106;18.046;2022-12-07T13:26:22;99807.44;;;1.23;91.58
76730;BME280;65653;53.106;18.046;2022-12-07T13:28:58;99806.30;;;1.24;91.65
76730;BME280;65653;53.106;18.046;2022-12-07T13:31:34;99811.67;;;1.19;91.55
76730;BME280;65653;53.106;18.046;2022-12-07T13:34:03;99811.57;;;1.16;91.61
76730;BME280;65653;53.106;18.046;2022-12-07T13:36:37;99813.20;;;1.14;91.82
76730;BME280;65653;53.106;18.046;2022-12-07T13:39:17;99817.89;;;1.13;91.90
76730;BME280;65653;53.106;18.046;2022-12-07T13:41:48;99819.30;;;1.13;92.11
76730;BME280;65653;53.106;18.046;2022-12-07T13:44:17;99819.35;;;1.13;92.17
76730;BME280;65653;53.106;18.046;2022-12-07T13:49:56;99819.30;;;1.13;92.46
76730;BME280;65653;53.106;18.046;2022-12-07T13:52:26;99820.48;;;1.11;92.31
76730;BME280;65653;53.106;18.046;2022-12-07T13:55:05;99816.89;;;1.09;92.13
76730;BME280;65653;53.106;18.046;2022-12-07T13:57:40;99819.73;;;1.14;92.18
76730;BME280;65653;53.106;18.046;2022-12-07T14:00:19;99818.27;;;1.13;92.10
76730;BME280;65653;53.106;18.046;2022-12-07T14:03:27;99820.21;;;1.14;92.15
76730;BME280;65653;53.106;18.046;2022-12-07T14:06:22;99822.98;;;1.14;92.17
76730;BME280;65653;53.106;18.046;2022-12-07T14:09:14;99822.86;;;1.09;92.22
76730;BME280;65653;53.106;18.046;2022-12-07T14:11:44;99820.88;;;1.09;92.45
76730;BME280;65653;53.106;18.046;2022-12-07T14:14:14;99820.10;;;1.08;92.36
76730;BME280;65653;53.106;18.046;2022-12-07T14:16:42;99820.73;;;1.05;92.38
76730;BME280;65653;53.106;18.046;2022-12-07T14:22:17;99823.52;;;1.01;92.57
76730;BME280;65653;53.106;18.046;2022-12-07T14:24:45;99824.30;;;0.99;92.50
76730;BME280;65653;53.106;18.046;2022-12-07T14:27:23;99825.52;;;0.98;92.50
76730;BME280;65653;53.106;18.046;2022-12-07T14:29:51;99828.99;;;0.95;92.43
76730;BME280;65653;53.106;18.046;2022-12-07T14:32:22;99828.30;;;0.91;92.46
76730;BME280;65653;53.106;18.046;2022-12-07T14:34:56;99828.46;;;0.89;92.60
76730;BME280;65653;53.106;18.046;2022-12-07T14:37:23;99828.11;;;0.88;92.55
76730;BME280;65653;53.106;18.046;2022-12-07T14:39:50;99827.09;;;0.87;92.65
76730;BME280;65653;53.106;18.046;2022-12-07T14:42:17;99829.72;;;0.87;92.55
76730;BME280;65653;53.106;18.046;2022-12-07T14:44:43;99831.98;;;0.87;92.55
76730;BME280;65653;53.106;18.046;2022-12-07T14:47:10;99827.50;;;0.87;92.52
76730;BME280;65653;53.106;18.046;2022-12-07T14:49:37;99829.73;;;0.85;92.51
76730;BME280;65653;53.106;18.046;2022-12-07T14:52:05;99835.27;;;0.82;92.69
76730;BME280;65653;53.106;18.046;2022-12-07T14:54:37;99831.70;;;0.81;92.79
76730;BME280;65653;53.106;18.046;2022-12-07T14:57:03;99834.61;;;0.83;92.74
76730;BME280;65653;53.106;18.046;2022-12-07T14:59:29;99833.96;;;0.82;92.76